Station: Ansbach / Katterbach, ICAO: ETEB, Synop: Synop: 10755,
Koordinaten: 4919'00''N 01038'00''E, Hoehe: 467m, Entfernung: 22.19km
2017/12/12 07:56
ETEB 120756Z AUTO 25019G26KT 9999 SCT022 OVC031 01/M02 A2965 RMK AO2 PK WND 25027/23 PRESRR SLP073 T00111025 $


Station: Roth, ICAO: ETHR, Synop: Synop: 10765,
Koordinaten: 4913'00''N 01106'00''E, Hoehe: 388m, Entfernung: 23.74km
2013/12/05 06:53
ETHR 050653Z 25004KT 1200 BR OVC003 02/02 Q1027 AMB


Station: FEUCHT (USA-AF), ICAO: EDIG, Synop: Synop: 10764,
Koordinaten: 49 23 N 011 11 E, Hoehe: 386m, Entfernung: 38.77km


Station: Nuernberg, ICAO: EDDN, Synop: Synop: 10763,
Koordinaten: 4930'00''N 01103'00''E, Hoehe: 318m, Entfernung: 43.58km
2017/12/12 08:20
EDDN 120820Z 24010KT 210V270 9999 OVC025 03/M02 Q1005 R28/CLRD// NOSIG


Station: Illesheim, ICAO: ETIK, Synop: Synop: 10752,
Koordinaten: 4928'00''N 01023'00''E, Hoehe: 325m, Entfernung: 46.33km
2017/12/12 07:56
ETIK 120756Z 25015G22KT 9999 SCT027 BKN033 02/M01 A2966 RMK AO2A PRESRR SLP057 T00171007 $


Station: ILLESHEIM (USAF), ICAO: EDIK, Synop: Synop: 10752,
Koordinaten: 49 28 N 010 23 E, Hoehe: 325m, Entfernung: 46.33km


mehr Wetter
WetterInfo - adds.pl 2.6.003 DL3EL © 2004-2017 [154887]